Terminal Aerodrome Forecast
Issued by NWS

Home | Current Version | Previous Version | Text Only | Print | Product List | Glossary On
Versions: 1 2 3 4 5 6 7 8 9 10 11 12 13 14 15 16 17 18 19 20
000
FTUS46 KEKA 242300 RRA
TAFCEC
TAF
KCEC 242346Z 2500/2524 16004KT P6SM BKN035 OVC060
     FM250300 VRB03KT P6SM SCT030 BKN060 OVC200
     FM250900 13003KT 5SM -DZ BR SCT015 BKN025 OVC060
     FM251800 25004KT P6SM VCSH SCT025 BKN120=

USA.gov is the U.S. government's official web portal to all federal, state and local government web resources and services.